Search for airport 
image banner adimage banner adimage banner ad
image banner ad

O20 - Kingdon Airpark

Located in Lodi, United States

ICAO - O20, IATA -

Data provided by Airmate  

General information

Coordinates: N38°5'30" W121°21'34"
Elevation is 15 feet MSL.
Magnetic variation is 16° East
View others Airports in California

Operational data

Special qualification required
Current time UTC:
Current local time:
Weather at : KSCK - Stockton Metropolitan ( 24 km )
METAR: KSCK 292155Z 31009KT 10SM CLR 37/14 A2982 RMK AO2 SLP096 T03720139
TAF: KSCK 291812Z 2918/3018 30008KT P6SM BKN200 FM300200 27012G20KT P6SM SCT200 FM301200 VRB04KT P6SM SCT150
View NOTAMs / SUP AIP / TFR affecting this airport [VIEW]
Communications frequencies: [VIEW]

Runways:

RWY identifierQFULength (ft)Width (ft)SurfaceLDA (ft)
12370560ASPH
30370560ASPH

Airport contact information

Address: Lodi United States

Satellite view of O20